Excelsior — ONCD — position and weather

sailwx.info

Track history (hours):
 
Tides and Currents Weather Stations Pressure Air Temp Water Temp Dewpoint Dewpoint Depression Visibility Wind Speed Wind Dir Waves Ship Positions

Excelsior

Last reported at 2018-Feb-05 14:30 UTC. Time now 2018-Feb-25 08:04 UTC.
Position N 32°27' E 034°46'.
Warning: this ship's position is 19 days out of date.

Length 277 m; draft 11.2 m.

Type: Ship. MMSI: 205423000.

Date/timePositionNaut miles runAvg speedWind from/ knotsBaromVisibWave heightAir tempDewpointWater temp
2018-Feb-05 14:30N 32°27' E 034°46'0 0.0
2018-Feb-05 14:00N 32°27' E 034°46'0 0.0
2018-Feb-05 13:30N 32°27' E 034°46'0 0.1
2018-Feb-05 13:00N 32°27' E 034°46'0 0.2
2018-Feb-05 12:30N 32°27' E 034°46'0 0.4
2018-Feb-05 12:00N 32°27' E 034°46'1 1.6
2018-Feb-05 11:30N 32°26' E 034°47'1 1.0
2018-Feb-05 10:59N 32°26' E 034°46'1 1.3
2018-Feb-05 10:30N 32°26' E 034°46'0 0.3
2018-Feb-05 10:00N 32°26' E 034°46'1 1.1
2018-Feb-05 09:30N 32°25' E 034°47'1 1.8
2018-Feb-05 08:59N 32°25' E 034°47'0 0.8
2018-Feb-05 08:30N 32°25' E 034°47'0 0.7
2018-Feb-05 08:00N 32°25' E 034°47'0 0.3
2018-Feb-05 07:30N 32°25' E 034°47'0 0.1
2018-Feb-05 07:00N 32°25' E 034°47'0 0.1
2018-Feb-05 06:30N 32°25' E 034°47'0 0.2
2018-Feb-05 05:29N 32°26' E 034°47'0 0.1
2018-Feb-05 04:59N 32°26' E 034°47'0 0.0
2018-Feb-05 04:29N 32°26' E 034°47'0 0.1
2018-Feb-05 03:59N 32°26' E 034°47'0 0.0
2018-Feb-05 03:29N 32°26' E 034°47'0 0.0
2018-Feb-05 02:59N 32°26' E 034°47'0 0.0
2018-Feb-05 02:29N 32°26' E 034°47'0 0.0
2018-Feb-05 01:59N 32°26' E 034°47'0 0.0
2018-Feb-05 01:29N 32°26' E 034°47'0 0.0
2018-Feb-05 00:59N 32°26' E 034°47'0 0.0
2018-Feb-05 00:29N 32°26' E 034°47'0 0.0
2018-Feb-04 23:59N 32°26' E 034°47'0 0.0
2018-Feb-04 23:29N 32°26' E 034°47'0 0.0
2018-Feb-04 22:59N 32°26' E 034°47'0 0.2
2018-Feb-04 22:29N 32°26' E 034°47'0 0.2
2018-Feb-04 22:00N 32°26' E 034°47'0 0.6
2018-Feb-04 21:30N 32°25' E 034°47'0 0.4
2018-Feb-04 21:01N 32°25' E 034°47'6 6.4
2018-Feb-04 20:00N 32°26' E 034°39'713.4
2018-Feb-04 19:30N 32°32' E 034°35'1019.2
2018-Feb-04 19:00N 32°34' E 034°24'1019.3
2018-Feb-04 18:30N 32°35' E 034°13'918.9
2018-Feb-04 18:00N 32°36' E 034°02'918.8
2018-Feb-04 17:30N 32°37' E 033°51'3819.2
2018-Feb-04 15:30N 32°38' E 033°05'1119.0
2018-Feb-04 14:55N 32°39' E 032°52'4615.7
2018-Feb-04 12:00N 32°54' E 032°00'10317.2 120 / 161016.0 5.4 19.015.718.3
2018-Feb-04 06:00N 33°18' E 030°00'10217.0 130 / 211017.0 5.4 16.015.117.7
2018-Feb-04 00:00N 33°36' E 028°00'19916.6 160 / 111017.0 5.4 16.012.417.0
2018-Feb-03 12:00N 34°18' E 024°06'10116.8 180 / 141017.010.8 17.011.516.0
2018-Feb-03 06:00N 34°36' E 022°06'10116.9 170 / 111015.210.8 16.212.216.2
2018-Feb-03 00:00N 35°00' E 020°06'10016.6 280 / 221014.0 5.4 17.011.516.7
2018-Feb-02 18:00N 35°18' E 018°06'650.6 190 / 281013.510.8 17.013.516.3
2018-Feb-02 17:53N 35°22' E 018°10'716.7
2018-Feb-02 17:29N 35°24' E 018°02'3216.3
2018-Feb-02 15:30N 35°30' E 017°24'3615.8
2018-Feb-02 13:13N 35°38' E 016°40'8416.3
2018-Feb-02 08:03N 35°60' E 014°60'116.3
2018-Feb-02 08:00N 36°01' E 014°59'714.2
2018-Feb-02 07:29N 36°02' E 014°51'815.9
2018-Feb-02 07:00N 35°60' E 014°42'4 7.4
2018-Feb-02 06:30N 35°58' E 014°37'1 2.5
2018-Feb-02 06:01N 35°59' E 014°36'2 4.8
2018-Feb-02 05:30N 36°00' E 014°33'611.3
2018-Feb-02 05:00N 36°03' E 014°28'815.7
2018-Feb-02 04:30N 36°07' E 014°19'815.1
2018-Feb-02 04:00N 36°12' E 014°12'714.2
2018-Feb-02 03:30N 36°16' E 014°05'715.0
2018-Feb-02 03:00N 36°20' E 013°57'714.6
2018-Feb-02 02:29N 36°24' E 013°49'715.4
2018-Feb-02 02:00N 36°28' E 013°41'914.9
2018-Feb-02 01:25N 36°34' E 013°34'715.3
2018-Feb-02 00:57N 36°39' E 013°27'11216.1
2018-Feb-01 18:00N 37°48' E 011°36'9515.9 190 / 201008.510.8 15.011.316.0
2018-Feb-01 12:00N 38°00' E 009°36'11018.3 210 / 131011.010.8 17.011.515.8
2018-Feb-01 06:00N 37°48' E 007°18'42617.8 210 / 91011.510.8 14.011.215.7
2018-Jan-31 06:00N 36°18' W 001°24'17617.5 050 / 341018.410.8 14.012.215.0
2018-Jan-30 19:57N 35°60' W 005°01'716.4
2018-Jan-30 19:30N 35°59' W 005°10'816.8
2018-Jan-30 19:00N 35°59' W 005°20'32917.3
2018-Jan-30 00:00N 34°48' W 011°54'10517.5 110 / 251017.0 5.4 16.012.418.0
2018-Jan-29 18:00N 34°30' W 014°00'10217.0 060 / 261015.010.8 13.212.117.7
2018-Jan-29 12:00N 34°06' W 016°00'9816.3 040 / 361019.0 5.4 15.011.318.0
2018-Jan-29 06:00N 33°42' W 017°54'10317.2 030 / 331020.010.8 15.011.319.0
2018-Jan-29 00:00N 33°18' W 019°54'21217.7 040 / 331023.0 5.4 17.013.520.0
2018-Jan-28 12:00N 32°12' W 023°54'11318.8 090 / 271025.010.8 17.015.320.0
2018-Jan-28 06:00N 31°24' W 025°54'10417.4 110 / 191024.010.8 17.013.520.0
2018-Jan-28 00:00N 30°36' W 027°42'11018.3 110 / 211025.0 5.4 18.012.721.0
2018-Jan-27 18:00N 29°48' W 029°36'22118.4 120 / 171023.210.8 20.015.320.9
2018-Jan-27 06:00N 28°12' W 033°24'20817.3 130 / 251021.010.8 20.014.921.5
2018-Jan-26 18:00N 26°30' W 036°48'   110 / 181019.010.8 22.015.422.2
Track history (hours):
 
Tides and Currents Weather Stations Pressure Air Temp Water Temp Dewpoint Dewpoint Depression Visibility Wind Speed Wind Dir Waves Ship Positions

Excelsior

Last reported at 2018-Feb-05 14:30 UTC. Time now 2018-Feb-25 08:04 UTC.
Position N 32°27' E 034°46'.
Warning: this ship's position is 19 days out of date.

Length 277 m; draft 11.2 m.

Type: Ship. MMSI: 205423000.

Date/timePositionNaut miles runAvg speedWind from/ knotsBaromVisibWave heightAir tempDewpointWater temp
2018-Feb-05 14:30N 32°27' E 034°46'0 0.0
2018-Feb-05 14:00N 32°27' E 034°46'0 0.0
2018-Feb-05 13:30N 32°27' E 034°46'0 0.1
2018-Feb-05 13:00N 32°27' E 034°46'0 0.2
2018-Feb-05 12:30N 32°27' E 034°46'0 0.4
2018-Feb-05 12:00N 32°27' E 034°46'1 1.6
2018-Feb-05 11:30N 32°26' E 034°47'1 1.0
2018-Feb-05 10:59N 32°26' E 034°46'1 1.3
2018-Feb-05 10:30N 32°26' E 034°46'0 0.3
2018-Feb-05 10:00N 32°26' E 034°46'1 1.1
2018-Feb-05 09:30N 32°25' E 034°47'1 1.8
2018-Feb-05 08:59N 32°25' E 034°47'0 0.8
2018-Feb-05 08:30N 32°25' E 034°47'0 0.7
2018-Feb-05 08:00N 32°25' E 034°47'0 0.3
2018-Feb-05 07:30N 32°25' E 034°47'0 0.1
2018-Feb-05 07:00N 32°25' E 034°47'0 0.1
2018-Feb-05 06:30N 32°25' E 034°47'0 0.2
2018-Feb-05 05:29N 32°26' E 034°47'0 0.1
2018-Feb-05 04:59N 32°26' E 034°47'0 0.0
2018-Feb-05 04:29N 32°26' E 034°47'0 0.1
2018-Feb-05 03:59N 32°26' E 034°47'0 0.0
2018-Feb-05 03:29N 32°26' E 034°47'0 0.0
2018-Feb-05 02:59N 32°26' E 034°47'0 0.0
2018-Feb-05 02:29N 32°26' E 034°47'0 0.0
2018-Feb-05 01:59N 32°26' E 034°47'0 0.0
2018-Feb-05 01:29N 32°26' E 034°47'0 0.0
2018-Feb-05 00:59N 32°26' E 034°47'0 0.0
2018-Feb-05 00:29N 32°26' E 034°47'0 0.0
2018-Feb-04 23:59N 32°26' E 034°47'0 0.0
2018-Feb-04 23:29N 32°26' E 034°47'0 0.0
2018-Feb-04 22:59N 32°26' E 034°47'0 0.2
2018-Feb-04 22:29N 32°26' E 034°47'0 0.2
2018-Feb-04 22:00N 32°26' E 034°47'0 0.6
2018-Feb-04 21:30N 32°25' E 034°47'0 0.4
2018-Feb-04 21:01N 32°25' E 034°47'6 6.4
2018-Feb-04 20:00N 32°26' E 034°39'713.4
2018-Feb-04 19:30N 32°32' E 034°35'1019.2
2018-Feb-04 19:00N 32°34' E 034°24'1019.3
2018-Feb-04 18:30N 32°35' E 034°13'918.9
2018-Feb-04 18:00N 32°36' E 034°02'918.8
2018-Feb-04 17:30N 32°37' E 033°51'3819.2
2018-Feb-04 15:30N 32°38' E 033°05'1119.0
2018-Feb-04 14:55N 32°39' E 032°52'4615.7
2018-Feb-04 12:00N 32°54' E 032°00'10317.2 120 / 161016.0 5.4 19.015.718.3
2018-Feb-04 06:00N 33°18' E 030°00'10217.0 130 / 211017.0 5.4 16.015.117.7
2018-Feb-04 00:00N 33°36' E 028°00'19916.6 160 / 111017.0 5.4 16.012.417.0
2018-Feb-03 12:00N 34°18' E 024°06'10116.8 180 / 141017.010.8 17.011.516.0
2018-Feb-03 06:00N 34°36' E 022°06'10116.9 170 / 111015.210.8 16.212.216.2
2018-Feb-03 00:00N 35°00' E 020°06'10016.6 280 / 221014.0 5.4 17.011.516.7
2018-Feb-02 18:00N 35°18' E 018°06'650.6 190 / 281013.510.8 17.013.516.3
2018-Feb-02 17:53N 35°22' E 018°10'716.7
2018-Feb-02 17:29N 35°24' E 018°02'3216.3
2018-Feb-02 15:30N 35°30' E 017°24'3615.8
2018-Feb-02 13:13N 35°38' E 016°40'8416.3
2018-Feb-02 08:03N 35°60' E 014°60'116.3
2018-Feb-02 08:00N 36°01' E 014°59'714.2
2018-Feb-02 07:29N 36°02' E 014°51'815.9
2018-Feb-02 07:00N 35°60' E 014°42'4 7.4
2018-Feb-02 06:30N 35°58' E 014°37'1 2.5
2018-Feb-02 06:01N 35°59' E 014°36'2 4.8
2018-Feb-02 05:30N 36°00' E 014°33'611.3
2018-Feb-02 05:00N 36°03' E 014°28'815.7
2018-Feb-02 04:30N 36°07' E 014°19'815.1
2018-Feb-02 04:00N 36°12' E 014°12'714.2
2018-Feb-02 03:30N 36°16' E 014°05'715.0
2018-Feb-02 03:00N 36°20' E 013°57'714.6
2018-Feb-02 02:29N 36°24' E 013°49'715.4
2018-Feb-02 02:00N 36°28' E 013°41'914.9
2018-Feb-02 01:25N 36°34' E 013°34'715.3
2018-Feb-02 00:57N 36°39' E 013°27'11216.1
2018-Feb-01 18:00N 37°48' E 011°36'9515.9 190 / 201008.510.8 15.011.316.0
2018-Feb-01 12:00N 38°00' E 009°36'11018.3 210 / 131011.010.8 17.011.515.8
2018-Feb-01 06:00N 37°48' E 007°18'42617.8 210 / 91011.510.8 14.011.215.7
2018-Jan-31 06:00N 36°18' W 001°24'17617.5 050 / 341018.410.8 14.012.215.0
2018-Jan-30 19:57N 35°60' W 005°01'716.4
2018-Jan-30 19:30N 35°59' W 005°10'816.8
2018-Jan-30 19:00N 35°59' W 005°20'32917.3
2018-Jan-30 00:00N 34°48' W 011°54'10517.5 110 / 251017.0 5.4 16.012.418.0
2018-Jan-29 18:00N 34°30' W 014°00'10217.0 060 / 261015.010.8 13.212.117.7
2018-Jan-29 12:00N 34°06' W 016°00'9816.3 040 / 361019.0 5.4 15.011.318.0
2018-Jan-29 06:00N 33°42' W 017°54'10317.2 030 / 331020.010.8 15.011.319.0
2018-Jan-29 00:00N 33°18' W 019°54'21217.7 040 / 331023.0 5.4 17.013.520.0
2018-Jan-28 12:00N 32°12' W 023°54'11318.8 090 / 271025.010.8 17.015.320.0
2018-Jan-28 06:00N 31°24' W 025°54'10417.4 110 / 191024.010.8 17.013.520.0
2018-Jan-28 00:00N 30°36' W 027°42'11018.3 110 / 211025.0 5.4 18.012.721.0
2018-Jan-27 18:00N 29°48' W 029°36'22118.4 120 / 171023.210.8 20.015.320.9
2018-Jan-27 06:00N 28°12' W 033°24'20817.3 130 / 251021.010.8 20.014.921.5
2018-Jan-26 18:00N 26°30' W 036°48'   110 / 181019.010.8 22.015.422.2

Dump ship's entire track history